Time;durP1;ratioP1;P1;durP2;ratioP2;P2;SDS_P1;SDS_P2;PMS_P1;PMS_P2;Temp;Humidity;BMP_temperature;BMP_pressure;BME280_temperature;BME280_humidity;BME280_pressure;Samples;Min_cycle;Max_cycle;Signal;HPM_P1;HPM_P2
2020/05/31 00:00:12;;;;;;;1.31;1.21;;;;;;;19.85;43.23;100977.98;;;;-56
2020/05/31 00:03:12;;;;;;;1.97;1.36;;;;;;;19.85;43.33;100976.64;;;;-55
2020/05/31 00:06:12;;;;;;;1.40;1.30;;;;;;;19.84;43.30;100973.75;;;;-55
2020/05/31 00:09:12;;;;;;;1.41;1.31;;;;;;;19.84;43.32;100973.48;;;;-55
2020/05/31 00:13:02;;;;;;;1.96;1.35;;;;;;;19.83;43.36;100975.55;;;;-56
2020/05/31 00:15:12;;;;;;;1.31;1.20;;;;;;;19.83;43.37;100971.45;;;;-55
2020/05/31 00:18:12;;;;;;;2.29;1.24;;;;;;;19.82;43.28;100965.05;;;;-55
2020/05/31 00:21:12;;;;;;;1.30;1.20;;;;;;;19.82;43.31;100960.57;;;;-56
2020/05/31 00:24:33;;;;;;;1.40;1.30;;;;;;;19.81;43.23;100959.29;;;;-54
2020/05/31 00:27:12;;;;;;;1.40;1.30;;;;;;;19.81;43.37;100961.12;;;;-54
2020/05/31 00:30:13;;;;;;;1.37;1.27;;;;;;;19.81;43.25;100962.03;;;;-55
2020/05/31 00:33:12;;;;;;;1.71;1.29;;;;;;;19.80;43.33;100958.91;;;;-55
2020/05/31 00:36:12;;;;;;;1.28;1.18;;;;;;;19.80;43.33;100956.89;;;;-55
2020/05/31 00:39:12;;;;;;;1.28;1.18;;;;;;;19.79;43.25;100953.99;;;;-55
2020/05/31 00:42:12;;;;;;;1.27;1.17;;;;;;;19.79;43.28;100952.70;;;;-55
2020/05/31 00:45:12;;;;;;;1.30;1.20;;;;;;;19.79;43.32;100953.66;;;;-55
2020/05/31 00:48:12;;;;;;;3.01;1.29;;;;;;;19.79;43.32;100953.98;;;;-55
2020/05/31 00:51:12;;;;;;;1.40;1.30;;;;;;;19.78;43.26;100952.83;;;;-55
2020/05/31 00:54:12;;;;;;;1.33;1.20;;;;;;;19.77;43.31;100953.55;;;;-55
2020/05/31 00:57:12;;;;;;;1.43;1.27;;;;;;;19.78;43.24;100952.26;;;;-55
2020/05/31 01:00:18;;;;;;;1.45;1.28;;;;;;;19.77;43.28;100950.60;;;;-55
2020/05/31 01:03:14;;;;;;;1.40;1.30;;;;;;;19.77;43.29;100945.40;;;;-55
2020/05/31 01:06:13;;;;;;;1.67;1.40;;;;;;;19.77;43.23;100947.91;;;;-56
2020/05/31 01:09:12;;;;;;;1.45;1.30;;;;;;;19.76;43.27;100937.98;;;;-55
2020/05/31 01:12:12;;;;;;;1.38;1.28;;;;;;;19.75;43.29;100934.78;;;;-55
2020/05/31 01:15:12;;;;;;;1.30;1.20;;;;;;;19.76;43.31;100933.78;;;;-55
2020/05/31 01:18:12;;;;;;;1.31;1.21;;;;;;;19.75;43.22;100928.54;;;;-54
2020/05/31 01:21:12;;;;;;;1.37;1.27;;;;;;;19.75;43.29;100925.96;;;;-55
2020/05/31 01:24:12;;;;;;;1.15;1.11;;;;;;;19.75;43.29;100929.48;;;;-55
2020/05/31 01:27:12;;;;;;;1.25;1.15;;;;;;;19.74;43.28;100928.09;;;;-56
2020/05/31 01:30:12;;;;;;;1.31;1.21;;;;;;;19.74;43.26;100927.59;;;;-55
2020/05/31 01:33:12;;;;;;;1.35;1.25;;;;;;;19.74;43.26;100927.86;;;;-55
2020/05/31 01:36:12;;;;;;;1.22;1.14;;;;;;;19.73;43.27;100924.19;;;;-55
2020/05/31 01:39:12;;;;;;;1.52;1.20;;;;;;;19.73;43.19;100921.73;;;;-55
2020/05/31 01:42:12;;;;;;;1.41;1.31;;;;;;;19.72;43.32;100920.38;;;;-55
2020/05/31 01:45:12;;;;;;;1.35;1.25;;;;;;;19.72;43.29;100919.84;;;;-55
2020/05/31 01:48:12;;;;;;;1.37;1.27;;;;;;;19.72;43.22;100915.31;;;;-56
2020/05/31 01:51:12;;;;;;;1.25;1.15;;;;;;;19.72;43.29;100912.23;;;;-55
2020/05/31 01:54:12;;;;;;;1.29;1.20;;;;;;;19.72;43.28;100912.13;;;;-56
2020/05/31 01:57:12;;;;;;;1.23;1.17;;;;;;;19.72;43.29;100911.19;;;;-55
2020/05/31 02:00:12;;;;;;;1.34;1.24;;;;;;;19.70;43.25;100904.42;;;;-55
2020/05/31 02:03:14;;;;;;;1.34;1.24;;;;;;;19.71;43.24;100909.30;;;;-54
2020/05/31 02:06:12;;;;;;;1.31;1.21;;;;;;;19.70;43.23;100907.55;;;;-55
2020/05/31 02:09:12;;;;;;;1.34;1.24;;;;;;;19.70;43.31;100902.75;;;;-55
2020/05/31 02:15:12;;;;;;;1.30;1.20;;;;;;;19.69;43.32;100900.29;;;;-55
2020/05/31 02:18:12;;;;;;;1.21;1.16;;;;;;;19.69;43.22;100905.61;;;;-55
2020/05/31 02:21:12;;;;;;;1.36;1.26;;;;;;;19.69;43.23;100907.33;;;;-55
2020/05/31 02:24:12;;;;;;;1.30;1.20;;;;;;;19.69;43.25;100911.03;;;;-55
2020/05/31 02:31:33;;;;;;;1.40;1.30;;;;;;;19.68;43.22;100912.70;;;;-55
2020/05/31 02:34:16;;;;;;;3.59;1.30;;;;;;;19.68;43.20;100920.08;;;;-56
2020/05/31 02:37:50;;;;;;;1.26;1.16;;;;;;;19.67;43.22;100921.47;;;;-55
2020/05/31 02:40:21;;;;;;;1.29;1.20;;;;;;;19.67;43.27;100920.80;;;;-55
2020/05/31 02:43:13;;;;;;;1.38;1.28;;;;;;;19.67;43.19;100921.19;;;;-54
2020/05/31 02:53:17;;;;;;;1.30;1.20;;;;;;;19.66;43.23;100923.48;;;;-55
2020/05/31 02:56:15;;;;;;;2.36;1.20;;;;;;;19.65;43.23;100923.27;;;;-55
2020/05/31 02:59:35;;;;;;;1.39;1.29;;;;;;;19.65;43.26;100925.39;;;;-55
2020/05/31 03:02:21;;;;;;;1.30;1.20;;;;;;;19.65;43.26;100925.02;;;;-55
2020/05/31 03:11:25;;;;;;;1.42;1.29;;;;;;;19.64;43.18;100921.88;;;;-54
2020/05/31 03:17:12;;;;;;;2.72;1.17;;;;;;;19.65;43.15;100925.44;;;;-55
2020/05/31 03:23:40;;;;;;;1.18;1.18;;;;;;;19.63;43.15;100915.40;;;;-56
2020/05/31 03:26:27;;;;;;;1.30;1.20;;;;;;;19.63;43.21;100921.05;;;;-55
2020/05/31 03:35:29;;;;;;;1.39;1.26;;;;;;;19.62;43.17;100915.75;;;;-55
2020/05/31 03:38:24;;;;;;;1.29;1.20;;;;;;;19.62;43.13;100915.08;;;;-55
2020/05/31 03:41:27;;;;;;;1.27;1.19;;;;;;;19.62;43.18;100913.12;;;;-55
2020/05/31 03:44:16;;;;;;;1.29;1.19;;;;;;;19.62;43.15;100911.05;;;;-54
2020/05/31 03:47:26;;;;;;;1.30;1.20;;;;;;;19.61;43.19;100916.20;;;;-54
2020/05/31 03:50:25;;;;;;;1.30;1.20;;;;;;;19.62;43.16;100914.73;;;;-55
2020/05/31 03:53:24;;;;;;;1.37;1.27;;;;;;;19.61;43.19;100914.69;;;;-55
2020/05/31 03:56:57;;;;;;;1.26;1.17;;;;;;;19.60;43.18;100912.80;;;;-54
2020/05/31 04:01:56;;;;;;;1.27;1.18;;;;;;;19.60;43.23;100911.52;;;;-55
2020/05/31 04:03:22;;;;;;;1.30;1.20;;;;;;;19.60;43.23;100916.88;;;;-55
2020/05/31 04:06:57;;;;;;;1.25;1.17;;;;;;;19.60;43.15;100917.92;;;;-56
2020/05/31 04:09:20;;;;;;;1.25;1.15;;;;;;;19.59;43.23;100913.91;;;;-55
2020/05/31 04:18:18;;;;;;;1.27;1.17;;;;;;;19.58;43.13;100912.36;;;;-55
2020/05/31 04:21:37;;;;;;;1.10;1.10;;;;;;;19.58;43.06;100911.52;;;;-55
2020/05/31 04:27:21;;;;;;;1.20;1.09;;;;;;;19.59;43.08;100920.63;;;;-54
2020/05/31 04:30:18;;;;;;;1.30;1.20;;;;;;;19.58;43.09;100914.64;;;;-54
2020/05/31 04:33:16;;;;;;;3.88;1.23;;;;;;;19.50;40.92;100919.52;;;;-52
2020/05/31 04:36:19;;;;;;;3.09;1.42;;;;;;;19.34;39.81;100915.67;;;;-51
2020/05/31 04:40:09;;;;;;;2.60;1.30;;;;;;;19.31;40.62;100917.09;;;;-51
2020/05/31 04:43:25;;;;;;;2.57;1.31;;;;;;;19.37;40.79;100918.01;;;;-51
2020/05/31 04:46:26;;;;;;;1.45;1.20;;;;;;;19.39;41.30;100919.73;;;;-51
2020/05/31 04:49:29;;;;;;;1.31;1.21;;;;;;;19.42;41.44;100917.09;;;;-52
2020/05/31 04:52:25;;;;;;;1.83;1.29;;;;;;;19.44;41.68;100920.45;;;;-52
2020/05/31 05:00:33;;;;;;;3.67;1.29;;;;;;;19.47;41.96;100924.11;;;;-51
2020/05/31 05:03:26;;;;;;;1.38;1.27;;;;;;;19.47;42.06;100920.94;;;;-52
2020/05/31 05:16:18;;;;;;;1.53;1.30;;;;;;;19.50;42.25;100932.83;;;;-51
2020/05/31 05:19:21;;;;;;;1.20;1.10;;;;;;;19.50;42.29;100938.07;;;;-51
2020/05/31 05:26:30;;;;;;;1.55;1.26;;;;;;;19.51;42.42;100944.09;;;;-52
2020/05/31 05:29:38;;;;;;;1.30;1.20;;;;;;;19.52;42.37;100946.88;;;;-51
2020/05/31 05:32:18;;;;;;;1.30;1.20;;;;;;;19.51;42.44;100944.60;;;;-52
2020/05/31 05:35:17;;;;;;;1.43;1.25;;;;;;;19.52;42.48;100951.02;;;;-51
2020/05/31 05:38:38;;;;;;;1.37;1.20;;;;;;;19.51;42.49;100945.03;;;;-51
2020/05/31 05:41:21;;;;;;;2.66;1.41;;;;;;;19.52;42.47;100950.01;;;;-51
2020/05/31 05:46:36;;;;;;;1.28;1.18;;;;;;;19.51;42.50;100949.30;;;;-52
2020/05/31 05:57:25;;;;;;;1.14;1.11;;;;;;;19.52;42.56;100952.70;;;;-52
2020/05/31 06:00:22;;;;;;;1.25;1.15;;;;;;;19.52;42.54;100951.85;;;;-52
2020/05/31 06:11:23;;;;;;;1.27;1.20;;;;;;;19.52;42.57;100946.83;;;;-51
2020/05/31 06:14:18;;;;;;;1.85;1.12;;;;;;;19.53;42.67;100946.88;;;;-51
2020/05/31 06:17:20;;;;;;;1.45;1.19;;;;;;;19.53;42.61;100945.77;;;;-51
2020/05/31 06:23:22;;;;;;;1.89;1.15;;;;;;;19.53;42.65;100948.45;;;;-52
2020/05/31 06:26:35;;;;;;;1.25;1.14;;;;;;;19.52;42.64;100947.06;;;;-53
2020/05/31 06:32:21;;;;;;;2.22;1.20;;;;;;;19.53;42.61;100951.64;;;;-53
2020/05/31 06:41:27;;;;;;;1.34;1.24;;;;;;;19.53;42.68;100959.28;;;;-50
2020/05/31 06:44:21;;;;;;;1.31;1.18;;;;;;;19.53;42.66;100960.45;;;;-51
2020/05/31 06:47:26;;;;;;;1.27;1.17;;;;;;;19.53;42.66;100956.09;;;;-51
2020/05/31 06:50:26;;;;;;;1.30;1.20;;;;;;;19.54;42.69;100956.88;;;;-52
2020/05/31 06:53:16;;;;;;;1.10;1.10;;;;;;;19.54;42.63;100960.00;;;;-52
2020/05/31 06:56:21;;;;;;;1.27;1.17;;;;;;;19.54;42.72;100962.17;;;;-51
2020/05/31 07:02:28;;;;;;;1.25;1.16;;;;;;;19.54;42.74;100964.58;;;;-54
2020/05/31 07:05:18;;;;;;;1.13;1.07;;;;;;;19.54;42.77;100962.84;;;;-54
2020/05/31 07:12:20;;;;;;;1.30;1.20;;;;;;;19.54;42.71;100969.72;;;;-54
2020/05/31 07:15:21;;;;;;;1.30;1.20;;;;;;;19.55;42.69;100977.14;;;;-54
2020/05/31 07:21:22;;;;;;;1.57;1.20;;;;;;;19.55;42.75;100977.30;;;;-54
2020/05/31 07:33:37;;;;;;;1.33;1.23;;;;;;;19.55;42.71;100973.02;;;;-55
2020/05/31 07:36:18;;;;;;;1.19;1.11;;;;;;;19.55;42.78;100970.77;;;;-54
2020/05/31 07:42:39;;;;;;;1.20;1.10;;;;;;;19.55;42.77;100965.41;;;;-55
2020/05/31 07:45:21;;;;;;;1.25;1.15;;;;;;;19.54;42.76;100963.86;;;;-55
2020/05/31 07:48:17;;;;;;;2.29;1.23;;;;;;;19.57;42.92;100958.48;;;;-51
2020/05/31 07:51:54;;;;;;;3.91;1.10;;;;;;;19.57;43.20;100958.82;;;;-54
2020/05/31 07:58:18;;;;;;;1.54;1.24;;;;;;;19.62;43.45;100964.73;;;;-52
2020/05/31 08:05:04;;;;;;;1.25;1.15;;;;;;;19.64;43.58;100963.59;;;;-52
2020/05/31 08:11:34;;;;;;;3.28;1.17;;;;;;;19.67;43.71;100967.67;;;;-52
2020/05/31 08:14:22;;;;;;;1.76;1.25;;;;;;;19.69;43.72;100968.34;;;;-51
2020/05/31 08:17:31;;;;;;;1.67;1.24;;;;;;;19.69;43.75;100969.16;;;;-53
2020/05/31 08:20:28;;;;;;;1.29;1.10;;;;;;;19.70;43.79;100964.69;;;;-55
2020/05/31 08:27:17;;;;;;;1.55;1.20;;;;;;;19.73;43.85;100962.73;;;;-55
2020/05/31 08:30:19;;;;;;;1.77;1.11;;;;;;;19.75;43.85;100962.83;;;;-46
2020/05/31 08:33:23;;;;;;;1.97;1.13;;;;;;;19.75;43.93;100963.84;;;;-51
2020/05/31 08:36:30;;;;;;;1.30;1.20;;;;;;;19.76;43.92;100959.70;;;;-52
2020/05/31 08:39:39;;;;;;;1.71;1.16;;;;;;;19.78;43.96;100960.81;;;;-52
2020/05/31 08:42:25;;;;;;;1.20;1.10;;;;;;;19.79;43.96;100956.66;;;;-51
2020/05/31 08:50:16;;;;;;;1.14;1.11;;;;;;;19.80;43.77;100953.71;;;;-53
2020/05/31 08:53:57;;;;;;;1.95;1.22;;;;;;;19.82;43.84;100956.15;;;;-49
2020/05/31 08:56:21;;;;;;;2.87;1.20;;;;;;;19.83;43.80;100962.06;;;;-52
2020/05/31 08:59:27;;;;;;;2.64;1.22;;;;;;;19.84;43.86;100955.81;;;;-52
2020/05/31 09:02:18;;;;;;;1.20;1.10;;;;;;;19.84;43.94;100951.63;;;;-53
2020/05/31 09:05:19;;;;;;;2.25;1.11;;;;;;;19.85;43.96;100952.28;;;;-54
2020/05/31 09:12:24;;;;;;;1.95;1.20;;;;;;;19.86;43.92;100944.30;;;;-50
2020/05/31 09:15:25;;;;;;;4.33;1.40;;;;;;;19.89;43.84;100943.23;;;;-49
2020/05/31 09:18:24;;;;;;;2.25;1.07;;;;;;;19.88;43.84;100942.44;;;;-49
2020/05/31 09:21:25;;;;;;;1.07;1.05;;;;;;;19.87;43.80;100942.95;;;;-49
2020/05/31 09:24:19;;;;;;;1.86;1.15;;;;;;;19.87;43.75;100945.57;;;;-49
2020/05/31 09:27:36;;;;;;;2.39;1.10;;;;;;;19.86;43.67;100950.62;;;;-49
2020/05/31 09:30:42;;;;;;;1.29;1.17;;;;;;;19.86;43.63;100950.89;;;;-50
2020/05/31 09:33:19;;;;;;;1.56;1.17;;;;;;;19.86;43.57;100944.84;;;;-50
2020/05/31 09:36:18;;;;;;;1.88;1.27;;;;;;;19.86;43.58;100947.70;;;;-49
2020/05/31 09:39:18;;;;;;;1.30;1.20;;;;;;;19.85;43.55;100944.23;;;;-49
2020/05/31 09:42:22;;;;;;;1.59;1.16;;;;;;;19.85;43.57;100930.73;;;;-49
2020/05/31 09:45:17;;;;;;;1.73;1.13;;;;;;;19.85;43.53;100934.98;;;;-49
2020/05/31 09:59:18;;;;;;;1.73;1.14;;;;;;;19.85;43.38;100934.41;;;;-49
2020/05/31 10:02:35;;;;;;;2.08;1.20;;;;;;;19.84;43.39;100936.21;;;;-51
2020/05/31 10:22:38;;;;;;;1.31;1.13;;;;;;;19.89;43.64;100946.29;;;;-50
2020/05/31 10:25:43;;;;;;;1.63;1.25;;;;;;;19.91;43.62;100936.13;;;;-48
2020/05/31 10:31:38;;;;;;;1.20;1.10;;;;;;;19.93;43.64;100930.02;;;;-55
2020/05/31 10:34:32;;;;;;;2.45;1.37;;;;;;;19.94;43.60;100924.77;;;;-52
2020/05/31 10:37:32;;;;;;;1.50;1.13;;;;;;;19.94;43.61;100921.36;;;;-53
2020/05/31 10:43:38;;;;;;;2.97;1.30;;;;;;;19.94;43.67;100923.58;;;;-50
2020/05/31 10:46:50;;;;;;;1.21;1.10;;;;;;;19.95;43.53;100919.33;;;;-56
2020/05/31 10:52:40;;;;;;;2.32;1.23;;;;;;;19.95;43.53;100913.69;;;;-56
2020/05/31 10:55:36;;;;;;;2.52;1.28;;;;;;;19.96;43.55;100908.77;;;;-57
2020/05/31 10:58:38;;;;;;;1.37;1.10;;;;;;;19.96;43.55;100905.09;;;;-57
2020/05/31 11:01:50;;;;;;;1.63;1.31;;;;;;;19.95;43.54;100906.42;;;;-57
2020/05/31 11:08:11;;;;;;;1.27;1.16;;;;;;;19.94;43.50;100902.12;;;;-57
2020/05/31 11:10:55;;;;;;;1.46;1.06;;;;;;;19.94;43.44;100906.44;;;;-55
2020/05/31 11:13:35;;;;;;;1.11;1.10;;;;;;;19.94;43.47;100903.25;;;;-57
2020/05/31 11:16:36;;;;;;;1.82;1.09;;;;;;;19.94;43.37;100904.25;;;;-56
2020/05/31 11:24:44;;;;;;;1.75;1.22;;;;;;;19.94;43.37;100899.95;;;;-57
2020/05/31 11:27:38;;;;;;;1.71;1.11;;;;;;;19.93;43.40;100900.34;;;;-57
2020/05/31 11:30:47;;;;;;;1.59;1.13;;;;;;;19.93;43.35;100902.13;;;;-57
2020/05/31 11:33:32;;;;;;;2.03;1.14;;;;;;;19.93;43.34;100899.57;;;;-57
2020/05/31 11:36:33;;;;;;;1.19;1.10;;;;;;;19.92;43.30;100903.98;;;;-56
2020/05/31 11:42:38;;;;;;;1.20;1.10;;;;;;;19.93;43.21;100911.14;;;;-56
2020/05/31 11:45:42;;;;;;;1.23;1.13;;;;;;;19.93;43.25;100908.96;;;;-56
2020/05/31 11:48:46;;;;;;;1.51;1.20;;;;;;;19.92;43.23;100903.69;;;;-56
2020/05/31 11:55:48;;;;;;;1.15;1.04;;;;;;;19.92;43.23;100892.65;;;;-55
2020/05/31 12:02:45;;;;;;;1.85;1.15;;;;;;;19.91;43.29;100882.36;;;;-55
2020/05/31 12:09:47;;;;;;;1.53;1.17;;;;;;;19.89;43.23;100874.94;;;;-52
2020/05/31 12:17:01;;;;;;;2.71;1.20;;;;;;;19.93;43.58;100883.52;;;;-54
2020/05/31 12:19:43;;;;;;;1.02;0.96;;;;;;;19.94;43.76;100887.16;;;;-50
2020/05/31 12:23:12;;;;;;;1.30;1.20;;;;;;;19.94;43.70;100869.89;;;;-49
2020/05/31 12:25:40;;;;;;;1.34;1.20;;;;;;;19.95;43.70;100884.86;;;;-50
2020/05/31 12:28:37;;;;;;;1.37;1.27;;;;;;;19.95;43.82;100872.49;;;;-51
2020/05/31 12:31:41;;;;;;;3.27;1.19;;;;;;;19.97;43.72;100863.44;;;;-49
2020/05/31 12:34:52;;;;;;;1.43;1.01;;;;;;;19.98;43.70;100874.67;;;;-52
2020/05/31 12:37:55;;;;;;;1.55;1.00;;;;;;;19.98;43.78;100873.94;;;;-52
2020/05/31 12:40:45;;;;;;;1.41;1.13;;;;;;;19.99;43.75;100866.08;;;;-56
2020/05/31 12:44:19;;;;;;;1.11;1.01;;;;;;;19.99;43.82;100864.91;;;;-53
2020/05/31 12:46:50;;;;;;;1.78;1.10;;;;;;;20.00;43.79;100866.09;;;;-52
2020/05/31 12:49:43;;;;;;;1.31;1.21;;;;;;;20.01;43.83;100859.98;;;;-52
2020/05/31 12:52:56;;;;;;;1.25;1.15;;;;;;;20.01;43.85;100855.45;;;;-47
2020/05/31 12:55:41;;;;;;;1.33;1.20;;;;;;;20.02;43.85;100851.43;;;;-47
2020/05/31 13:10:40;;;;;;;1.94;1.25;;;;;;;20.06;43.97;100853.64;;;;-52
2020/05/31 13:21:47;;;;;;;2.43;1.23;;;;;;;20.07;43.96;100845.08;;;;-51
2020/05/31 13:24:43;;;;;;;2.98;1.21;;;;;;;20.07;44.01;100848.09;;;;-51
2020/05/31 13:27:41;;;;;;;2.24;1.20;;;;;;;20.06;43.97;100842.06;;;;-51
2020/05/31 13:30:45;;;;;;;2.95;1.10;;;;;;;20.06;43.86;100845.92;;;;-50
2020/05/31 13:33:33;;;;;;;1.73;1.20;;;;;;;20.06;43.85;100847.27;;;;-51
2020/05/31 13:36:40;;;;;;;1.75;1.20;;;;;;;20.05;43.86;100847.72;;;;-50
2020/05/31 13:39:34;;;;;;;1.37;1.15;;;;;;;20.04;43.80;100835.81;;;;-51
2020/05/31 13:42:36;;;;;;;1.45;1.13;;;;;;;20.03;43.80;100838.34;;;;-51
2020/05/31 13:45:41;;;;;;;1.20;1.10;;;;;;;20.03;43.77;100848.80;;;;-50
2020/05/31 13:51:38;;;;;;;1.27;1.17;;;;;;;20.02;43.72;100845.83;;;;-51
2020/05/31 13:57:43;;;;;;;1.37;1.25;;;;;;;20.01;43.65;100834.23;;;;-50
2020/05/31 14:03:42;;;;;;;1.93;1.10;;;;;;;20.01;43.56;100839.25;;;;-51
2020/05/31 14:09:45;;;;;;;3.05;1.25;;;;;;;20.00;43.66;100845.67;;;;-56
2020/05/31 14:15:59;;;;;;;1.34;1.20;;;;;;;20.03;43.87;100846.61;;;;-52
2020/05/31 14:21:39;;;;;;;1.17;1.01;;;;;;;20.05;43.84;100853.36;;;;-51
2020/05/31 14:24:37;;;;;;;1.81;1.10;;;;;;;20.06;43.89;100853.34;;;;-49
2020/05/31 14:27:37;;;;;;;1.36;1.20;;;;;;;20.07;43.83;100858.16;;;;-56
2020/05/31 14:30:37;;;;;;;3.78;1.22;;;;;;;20.09;43.95;100854.28;;;;-51
2020/05/31 14:40:38;;;;;;;1.57;1.15;;;;;;;20.12;44.15;100844.20;;;;-51
2020/05/31 14:44:21;;;;;;;1.26;1.16;;;;;;;20.12;44.09;100845.04;;;;-51
2020/05/31 14:46:45;;;;;;;1.22;1.11;;;;;;;20.12;44.20;100841.46;;;;-55
2020/05/31 14:52:37;;;;;;;1.43;1.20;;;;;;;20.14;44.13;100839.94;;;;-53
2020/05/31 14:55:58;;;;;;;1.14;1.05;;;;;;;20.14;44.11;100836.92;;;;-51
2020/05/31 15:01:39;;;;;;;2.43;1.10;;;;;;;20.15;44.10;100832.38;;;;-52
2020/05/31 15:04:43;;;;;;;1.47;1.10;;;;;;;20.16;44.05;100834.57;;;;-49
2020/05/31 15:07:38;;;;;;;2.54;1.19;;;;;;;20.16;44.08;100837.85;;;;-50
2020/05/31 15:11:32;;;;;;;1.23;1.08;;;;;;;20.16;44.16;100835.45;;;;-50
2020/05/31 15:14:42;;;;;;;1.23;1.06;;;;;;;20.17;44.11;100830.52;;;;-47
2020/05/31 15:17:36;;;;;;;1.47;1.00;;;;;;;20.16;44.11;100825.28;;;;-48
2020/05/31 15:20:51;;;;;;;1.79;1.21;;;;;;;20.16;44.07;100827.30;;;;-48
2020/05/31 15:23:36;;;;;;;1.55;1.02;;;;;;;20.16;44.00;100827.80;;;;-52
2020/05/31 15:27:18;;;;;;;1.37;1.10;;;;;;;20.17;44.03;100824.83;;;;-53
2020/05/31 15:29:32;;;;;;;2.29;1.13;;;;;;;20.17;44.03;100823.59;;;;-54
2020/05/31 15:32:33;;;;;;;1.60;1.17;;;;;;;20.18;44.05;100825.38;;;;-50
2020/05/31 15:41:38;;;;;;;2.88;1.10;;;;;;;20.18;44.01;100823.20;;;;-52
2020/05/31 15:44:38;;;;;;;2.97;1.10;;;;;;;20.20;44.07;100832.02;;;;-49
2020/05/31 15:47:39;;;;;;;1.21;1.11;;;;;;;20.21;44.05;100826.53;;;;-49
2020/05/31 15:50:52;;;;;;;1.29;1.19;;;;;;;20.21;44.00;100820.16;;;;-49
2020/05/31 15:57:37;;;;;;;3.89;1.25;;;;;;;20.26;43.75;100821.39;;;;-46
2020/05/31 16:01:49;;;;;;;7.85;1.45;;;;;;;20.26;43.69;100816.59;;;;-51
2020/05/31 16:03:51;;;;;;;2.00;1.19;;;;;;;20.26;44.04;100820.89;;;;-49
2020/05/31 16:07:07;;;;;;;2.45;1.20;;;;;;;20.27;44.05;100814.73;;;;-50
2020/05/31 16:09:34;;;;;;;2.73;1.17;;;;;;;20.26;44.05;100811.06;;;;-55
2020/05/31 16:12:32;;;;;;;1.87;1.11;;;;;;;20.26;44.16;100810.94;;;;-51
2020/05/31 16:15:32;;;;;;;2.15;1.27;;;;;;;20.27;44.14;100809.16;;;;-51
2020/05/31 16:21:39;;;;;;;3.22;1.25;;;;;;;20.27;44.14;100816.01;;;;-51
2020/05/31 16:24:38;;;;;;;2.19;1.30;;;;;;;20.28;44.18;100812.22;;;;-51
2020/05/31 16:27:36;;;;;;;3.86;1.26;;;;;;;20.28;44.20;100809.64;;;;-51
2020/05/31 16:30:38;;;;;;;3.84;1.19;;;;;;;20.28;44.24;100813.10;;;;-53
2020/05/31 16:33:33;;;;;;;2.95;1.25;;;;;;;20.28;44.31;100806.52;;;;-50
2020/05/31 16:38:35;;;;;;;3.62;1.43;;;;;;;20.28;44.34;100805.49;;;;-51
2020/05/31 16:41:38;;;;;;;4.05;1.38;;;;;;;20.29;44.35;100813.05;;;;-51
2020/05/31 16:44:41;;;;;;;2.01;1.23;;;;;;;20.29;44.30;100811.20;;;;-54
2020/05/31 16:47:43;;;;;;;1.87;1.30;;;;;;;20.30;44.29;100811.31;;;;-52
2020/05/31 16:50:37;;;;;;;4.05;1.16;;;;;;;20.30;44.29;100813.42;;;;-52
2020/05/31 16:53:33;;;;;;;3.00;1.27;;;;;;;20.30;44.28;100809.06;;;;-52
2020/05/31 16:56:35;;;;;;;3.11;1.10;;;;;;;20.30;44.27;100808.00;;;;-54
2020/05/31 16:59:37;;;;;;;1.37;1.10;;;;;;;20.31;44.32;100816.83;;;;-52
2020/05/31 17:05:54;;;;;;;3.77;1.20;;;;;;;20.31;44.26;100816.16;;;;-52
2020/05/31 17:08:49;;;;;;;1.64;1.25;;;;;;;20.32;44.24;100817.61;;;;-52
2020/05/31 17:11:49;;;;;;;2.31;1.21;;;;;;;20.32;44.24;100820.46;;;;-53
2020/05/31 17:15:52;;;;;;;1.83;1.15;;;;;;;20.31;44.32;100816.05;;;;-52
2020/05/31 17:19:34;;;;;;;1.45;1.19;;;;;;;20.33;44.25;100821.22;;;;-54
2020/05/31 17:23:32;;;;;;;1.35;1.10;;;;;;;20.32;44.22;100821.75;;;;-52
2020/05/31 17:28:40;;;;;;;2.51;1.30;;;;;;;20.33;44.16;100816.48;;;;-45
2020/05/31 17:36:48;;;;;;;2.75;1.22;;;;;;;20.33;44.05;100824.91;;;;-53
2020/05/31 17:40:55;;;;;;;2.62;1.30;;;;;;;20.32;44.11;100831.07;;;;-53
2020/05/31 17:47:54;;;;;;;2.04;1.17;;;;;;;20.30;44.11;100836.95;;;;-53
2020/05/31 17:50:40;;;;;;;2.65;1.25;;;;;;;20.29;44.08;100836.97;;;;-53
2020/05/31 17:53:44;;;;;;;1.59;1.15;;;;;;;20.28;44.07;100839.44;;;;-54
2020/05/31 17:56:58;;;;;;;1.83;1.33;;;;;;;20.28;44.05;100844.09;;;;-54
2020/05/31 17:59:39;;;;;;;1.22;1.10;;;;;;;20.28;44.07;100844.42;;;;-54
2020/05/31 18:02:37;;;;;;;1.69;1.11;;;;;;;20.27;44.04;100842.30;;;;-54
2020/05/31 18:05:40;;;;;;;1.65;1.19;;;;;;;20.27;44.02;100849.18;;;;-54
2020/05/31 18:09:23;;;;;;;1.20;1.10;;;;;;;20.25;44.00;100846.73;;;;-54
2020/05/31 18:16:32;;;;;;;1.26;1.16;;;;;;;20.25;43.99;100851.16;;;;-54
2020/05/31 18:19:46;;;;;;;1.45;1.12;;;;;;;20.24;43.98;100854.17;;;;-52
2020/05/31 18:22:40;;;;;;;1.86;1.10;;;;;;;20.24;43.96;100857.86;;;;-53
2020/05/31 18:25:36;;;;;;;1.22;1.12;;;;;;;20.23;43.95;100856.98;;;;-52
2020/05/31 18:28:32;;;;;;;1.51;1.31;;;;;;;20.23;43.95;100856.80;;;;-53
2020/05/31 18:31:40;;;;;;;1.95;1.20;;;;;;;20.23;43.93;100861.66;;;;-52
2020/05/31 18:38:37;;;;;;;1.23;1.15;;;;;;;20.21;43.91;100870.73;;;;-52
2020/05/31 18:41:50;;;;;;;1.11;1.10;;;;;;;20.20;43.91;100873.54;;;;-52
2020/05/31 18:44:37;;;;;;;1.23;1.10;;;;;;;20.20;43.92;100884.00;;;;-52
2020/05/31 18:47:44;;;;;;;1.19;1.09;;;;;;;20.20;43.90;100887.75;;;;-52
2020/05/31 18:50:53;;;;;;;1.52;1.10;;;;;;;20.20;43.92;100893.72;;;;-52
2020/05/31 18:53:42;;;;;;;1.24;1.00;;;;;;;20.19;43.93;100893.11;;;;-52
2020/05/31 18:56:38;;;;;;;2.52;1.20;;;;;;;20.19;43.91;100892.00;;;;-52
2020/05/31 19:00:02;;;;;;;1.40;1.13;;;;;;;20.18;43.93;100897.72;;;;-53
2020/05/31 19:02:49;;;;;;;1.33;1.21;;;;;;;20.17;43.89;100896.53;;;;-53
2020/05/31 19:05:42;;;;;;;1.24;1.10;;;;;;;20.17;43.92;100902.13;;;;-53
2020/05/31 19:08:44;;;;;;;1.78;1.17;;;;;;;20.17;43.89;100906.56;;;;-53
2020/05/31 19:11:38;;;;;;;1.39;1.09;;;;;;;20.17;43.91;100908.33;;;;-53
2020/05/31 19:17:40;;;;;;;1.33;1.19;;;;;;;20.17;43.91;100911.19;;;;-53
2020/05/31 19:24:41;;;;;;;1.11;1.07;;;;;;;20.16;43.88;100913.48;;;;-53
2020/05/31 19:27:37;;;;;;;1.18;1.10;;;;;;;20.16;43.84;100919.35;;;;-53
2020/05/31 19:32:16;;;;;;;1.37;1.13;;;;;;;20.15;43.88;100920.81;;;;-53
2020/05/31 19:34:44;;;;;;;1.23;1.13;;;;;;;20.15;43.88;100922.66;;;;-53
2020/05/31 19:41:51;;;;;;;1.19;1.09;;;;;;;20.14;43.88;100929.25;;;;-53
2020/05/31 19:44:46;;;;;;;1.32;1.12;;;;;;;20.14;43.86;100935.13;;;;-53
2020/05/31 19:47:52;;;;;;;1.21;1.09;;;;;;;20.13;43.85;100934.47;;;;-53
2020/05/31 19:53:43;;;;;;;1.17;1.11;;;;;;;20.16;44.00;100943.67;;;;-50
2020/05/31 20:00:32;;;;;;;1.43;1.10;;;;;;;20.18;44.03;100946.62;;;;-48
2020/05/31 20:02:47;;;;;;;1.73;1.13;;;;;;;20.19;44.05;100945.33;;;;-49
2020/05/31 20:05:33;;;;;;;1.19;1.00;;;;;;;20.20;44.08;100948.17;;;;-47
2020/05/31 20:08:32;;;;;;;3.17;1.29;;;;;;;20.20;44.11;100949.58;;;;-48
2020/05/31 20:11:56;;;;;;;1.16;1.06;;;;;;;20.20;44.11;100947.84;;;;-48
2020/05/31 20:14:53;;;;;;;3.55;1.17;;;;;;;20.20;44.10;100949.52;;;;-51
2020/05/31 20:17:45;;;;;;;0.99;0.99;;;;;;;20.22;44.04;100949.16;;;;-51
2020/05/31 20:20:58;;;;;;;1.56;1.18;;;;;;;20.22;44.09;100952.02;;;;-52
2020/05/31 20:26:38;;;;;;;1.05;1.05;;;;;;;20.22;44.01;100950.11;;;;-52
2020/05/31 20:29:33;;;;;;;1.45;1.19;;;;;;;20.23;44.11;100954.02;;;;-51
2020/05/31 20:32:39;;;;;;;3.13;1.10;;;;;;;20.24;44.15;100954.42;;;;-50
2020/05/31 20:36:35;;;;;;;2.29;1.02;;;;;;;20.25;44.17;100958.33;;;;-49
2020/05/31 20:39:54;;;;;;;2.36;1.10;;;;;;;20.25;44.17;100962.41;;;;-49
2020/05/31 20:46:35;;;;;;;1.16;1.09;;;;;;;20.26;44.11;100963.80;;;;-50
2020/05/31 20:49:32;;;;;;;1.76;1.20;;;;;;;20.27;44.14;100964.97;;;;-50
2020/05/31 20:52:33;;;;;;;1.17;1.10;;;;;;;20.28;44.09;100965.86;;;;-49
2020/05/31 20:55:33;;;;;;;1.99;1.17;;;;;;;20.28;44.15;100962.78;;;;-51
2020/05/31 20:58:33;;;;;;;1.75;1.05;;;;;;;20.28;44.13;100966.30;;;;-50
2020/05/31 21:01:32;;;;;;;1.43;1.10;;;;;;;20.28;44.14;100964.73;;;;-50
2020/05/31 21:04:41;;;;;;;1.27;1.17;;;;;;;20.28;44.07;100969.83;;;;-49
2020/05/31 21:10:38;;;;;;;1.19;1.14;;;;;;;20.29;43.92;100970.77;;;;-51
2020/05/31 21:29:05;;;;;;;1.17;1.10;;;;;;;20.21;44.07;100973.61;;;;-51
2020/05/31 21:39:10;;;;;;;3.10;1.21;;;;;;;20.18;43.98;100974.73;;;;-51
2020/05/31 21:44:02;;;;;;;1.33;1.13;;;;;;;20.16;44.00;100973.59;;;;-51
2020/05/31 21:47:02;;;;;;;1.31;1.21;;;;;;;20.16;44.00;100978.63;;;;-51
2020/05/31 21:56:00;;;;;;;1.23;1.13;;;;;;;20.14;43.96;100978.11;;;;-51
2020/05/31 22:00:08;;;;;;;1.16;1.11;;;;;;;20.13;44.00;100979.23;;;;-51
2020/05/31 22:09:50;;;;;;;1.27;1.17;;;;;;;20.11;43.98;100982.48;;;;-52
2020/05/31 22:14:28;;;;;;;1.00;1.00;;;;;;;20.09;43.99;100983.34;;;;-51
2020/05/31 22:23:25;;;;;;;1.81;1.31;;;;;;;20.08;43.95;100973.46;;;;-51
2020/05/31 22:47:00;;;;;;;1.23;1.16;;;;;;;20.03;43.87;100980.45;;;;-50
2020/05/31 22:50:12;;;;;;;1.30;1.20;;;;;;;20.02;43.82;100983.83;;;;-50
2020/05/31 22:52:59;;;;;;;1.00;1.00;;;;;;;20.01;43.86;100984.61;;;;-50
2020/05/31 22:55:59;;;;;;;1.24;1.18;;;;;;;20.02;43.85;100985.73;;;;-50
2020/05/31 22:58:51;;;;;;;1.25;1.20;;;;;;;20.00;43.86;100989.09;;;;-50
2020/05/31 23:04:55;;;;;;;1.27;1.17;;;;;;;19.99;43.77;100985.86;;;;-50
2020/05/31 23:08:01;;;;;;;1.25;1.13;;;;;;;20.00;43.85;100990.15;;;;-50
2020/05/31 23:22:11;;;;;;;1.05;1.05;;;;;;;19.97;43.80;100982.25;;;;-50
2020/05/31 23:25:05;;;;;;;1.29;1.19;;;;;;;19.96;43.83;100979.33;;;;-50
2020/05/31 23:29:41;;;;;;;1.27;1.20;;;;;;;19.97;43.79;100979.06;;;;-50